Time;durP1;ratioP1;P1;durP2;ratioP2;P2;SDS_P1;SDS_P2;PMS_P1;PMS_P2;Temp;Humidity;BMP_temperature;BMP_pressure;BME280_temperature;BME280_humidity;BME280_pressure;Samples;Min_cycle;Max_cycle;Signal;HPM_P1;HPM_P2
2022/09/01 00:02:09;;;;;;;4.72;1.92;;;14.30;99.90;;;;;;5096916;27;20055;-82
2022/09/01 00:04:40;;;;;;;4.55;1.63;;;14.20;99.90;;;;;;5094177;27;20908;-84
2022/09/01 00:07:10;;;;;;;4.22;1.85;;;14.20;99.90;;;;;;5093730;28;20050;-82
2022/09/01 00:09:37;;;;;;;3.40;1.90;;;14.20;99.90;;;;;;5101616;27;20042;-83
2022/09/01 00:12:04;;;;;;;4.00;1.92;;;14.20;99.90;;;;;;5116361;27;20118;-82
2022/09/01 00:14:37;;;;;;;3.60;1.95;;;14.10;99.90;;;;;;5102328;27;20038;-83
2022/09/01 00:17:06;;;;;;;3.13;1.65;;;14.10;99.90;;;;;;5097635;28;20055;-83
2022/09/01 00:19:34;;;;;;;3.25;1.85;;;14.10;99.90;;;;;;5096691;27;20038;-83
2022/09/01 00:22:00;;;;;;;3.88;1.85;;;14.00;99.90;;;;;;5114240;27;20051;-85
2022/09/01 00:24:27;;;;;;;4.70;1.98;;;14.00;99.90;;;;;;5112269;27;20422;-78
2022/09/01 00:26:54;;;;;;;4.78;1.73;;;14.00;99.90;;;;;;5107400;27;20128;-80
2022/09/01 00:29:20;;;;;;;4.80;1.70;;;14.00;99.90;;;;;;5083342;27;20043;-83
2022/09/01 00:31:47;;;;;;;4.78;1.92;;;14.00;99.90;;;;;;5094301;27;20060;-84
2022/09/01 00:34:13;;;;;;;4.82;1.80;;;14.00;99.90;;;;;;5113459;27;20421;-83
2022/09/01 00:36:39;;;;;;;4.13;1.92;;;13.90;99.90;;;;;;5098090;27;20104;-83
2022/09/01 00:39:08;;;;;;;3.97;1.92;;;13.90;99.90;;;;;;5097893;27;20051;-80
2022/09/01 00:41:38;;;;;;;3.47;1.42;;;13.90;99.90;;;;;;5109364;27;20043;-80
2022/09/01 00:44:10;;;;;;;4.28;1.80;;;13.90;99.90;;;;;;5102416;27;20734;-83
2022/09/01 00:46:44;;;;;;;4.53;2.30;;;13.90;99.90;;;;;;5102032;27;20035;-85
2022/09/01 00:49:16;;;;;;;3.22;1.50;;;13.90;99.90;;;;;;5095956;27;20043;-83
2022/09/01 00:51:46;;;;;;;2.25;1.67;;;13.80;99.90;;;;;;5095938;28;20117;-83
2022/09/01 00:54:17;;;;;;;3.47;2.03;;;13.80;99.90;;;;;;5095294;28;20103;-83
2022/09/01 00:56:45;;;;;;;2.70;1.58;;;13.80;99.90;;;;;;5093202;28;20044;-84
2022/09/01 00:59:11;;;;;;;3.90;1.60;;;13.70;99.90;;;;;;5094093;28;20066;-82
2022/09/01 01:01:38;;;;;;;3.08;1.77;;;13.70;99.90;;;;;;5072932;27;20044;-83
2022/09/01 01:04:06;;;;;;;2.85;1.67;;;13.80;99.90;;;;;;5110144;27;20093;-83
2022/09/01 01:06:39;;;;;;;2.88;1.65;;;13.70;99.90;;;;;;5097533;28;20078;-83
2022/09/01 01:09:08;;;;;;;2.95;1.90;;;13.70;99.90;;;;;;5110458;27;20437;-83
2022/09/01 01:11:34;;;;;;;3.95;1.90;;;13.60;99.90;;;;;;5100403;28;20043;-82
2022/09/01 01:14:14;;;;;;;4.38;2.13;;;13.60;99.90;;;;;;5113790;28;20043;-83
2022/09/01 01:16:43;;;;;;;2.92;2.08;;;13.60;99.90;;;;;;5092744;28;20390;-84
2022/09/01 01:25:00;;;;;;;4.10;1.90;;;13.50;99.90;;;;;;5117849;27;20096;-81
2022/09/01 01:27:32;;;;;;;4.40;2.08;;;13.40;99.90;;;;;;5078056;27;20041;-81
2022/09/01 01:30:03;;;;;;;3.35;1.63;;;13.40;99.90;;;;;;5098760;27;20401;-83
2022/09/01 01:32:29;;;;;;;2.90;1.77;;;13.40;99.90;;;;;;5090849;27;20043;-83
2022/09/01 01:34:55;;;;;;;3.10;2.00;;;13.40;99.90;;;;;;5100155;27;20065;-83
2022/09/01 01:37:23;;;;;;;2.67;1.88;;;13.40;99.90;;;;;;5115151;27;20039;-84
2022/09/01 01:39:49;;;;;;;3.50;1.95;;;13.30;99.90;;;;;;5082891;27;20517;-79
2022/09/01 01:42:15;;;;;;;4.32;2.03;;;13.30;99.90;;;;;;5119907;27;20578;-79
2022/09/01 01:44:41;;;;;;;2.63;1.73;;;13.20;99.90;;;;;;5104615;27;20055;-80
2022/09/01 01:47:12;;;;;;;3.38;1.75;;;13.30;99.90;;;;;;5087640;27;20039;-79
2022/09/01 01:49:42;;;;;;;3.22;1.85;;;13.20;99.90;;;;;;5121847;27;20086;-84
2022/09/01 01:52:13;;;;;;;4.03;1.75;;;13.20;99.90;;;;;;5104751;27;20046;-82
2022/09/01 01:54:40;;;;;;;2.88;1.85;;;13.20;99.90;;;;;;5099936;27;20862;-82
2022/09/01 01:57:06;;;;;;;3.42;1.80;;;13.10;99.90;;;;;;5097873;27;20099;-83
2022/09/01 01:59:32;;;;;;;3.55;1.70;;;13.10;99.90;;;;;;5071846;27;20121;-82
2022/09/01 02:02:02;;;;;;;3.33;1.75;;;13.10;99.90;;;;;;5101397;27;20544;-82
2022/09/01 02:04:32;;;;;;;4.13;1.95;;;13.10;99.90;;;;;;5089347;27;20050;-82
2022/09/01 02:06:58;;;;;;;4.60;1.88;;;13.10;99.90;;;;;;5093380;27;20416;-83
2022/09/01 02:09:24;;;;;;;3.95;1.95;;;13.00;99.90;;;;;;5105366;27;20105;-82
2022/09/01 02:11:57;;;;;;;4.22;2.00;;;13.00;99.90;;;;;;5084995;27;20042;-81
2022/09/01 02:14:23;;;;;;;4.38;2.17;;;13.00;99.90;;;;;;5091489;27;20043;-79
2022/09/01 02:16:49;;;;;;;3.05;1.85;;;13.00;99.90;;;;;;5112821;27;20070;-79
2022/09/01 02:19:18;;;;;;;3.30;2.00;;;12.90;99.90;;;;;;5101415;27;20090;-82
2022/09/01 02:21:47;;;;;;;2.97;1.63;;;12.90;99.90;;;;;;5089928;27;20537;-82
2022/09/01 02:24:14;;;;;;;3.33;2.08;;;12.90;99.90;;;;;;5104222;27;20046;-81
2022/09/01 02:26:47;;;;;;;3.72;2.42;;;12.90;99.90;;;;;;5098990;27;20656;-81
2022/09/01 02:29:17;;;;;;;4.30;1.92;;;12.90;99.90;;;;;;5117969;27;20051;-81
2022/09/01 02:31:45;;;;;;;5.47;2.30;;;12.80;99.90;;;;;;5101372;27;20042;-81
2022/09/01 02:34:12;;;;;;;3.17;2.10;;;12.80;99.90;;;;;;5104194;27;20035;-81
2022/09/01 02:36:47;;;;;;;3.65;2.08;;;12.80;99.90;;;;;;5102375;27;20095;-81
2022/09/01 02:39:32;;;;;;;3.67;1.92;;;12.80;99.90;;;;;;5099079;27;20042;-82
2022/09/01 02:42:00;;;;;;;2.55;2.00;;;12.70;99.90;;;;;;5123748;27;20114;-81
2022/09/01 02:44:27;;;;;;;4.22;2.30;;;12.70;99.90;;;;;;5120095;27;20458;-82
2022/09/01 02:46:53;;;;;;;5.07;2.00;;;12.70;99.90;;;;;;5102012;27;20047;-81
2022/09/01 02:49:27;;;;;;;3.40;2.33;;;12.70;99.90;;;;;;5120717;27;20046;-80
2022/09/01 02:52:00;;;;;;;3.20;2.10;;;12.70;99.90;;;;;;5115618;27;20563;-81
2022/09/01 02:54:27;;;;;;;2.90;1.98;;;12.70;99.90;;;;;;5121047;27;20105;-83
2022/09/01 02:56:53;;;;;;;2.90;1.80;;;12.70;99.90;;;;;;5094590;27;21326;-82
2022/09/01 02:59:21;;;;;;;3.85;2.13;;;12.70;99.90;;;;;;5058324;27;20054;-81
2022/09/01 03:01:52;;;;;;;3.67;2.55;;;12.70;99.90;;;;;;5141067;27;20651;-81
2022/09/01 03:04:19;;;;;;;3.92;2.47;;;12.70;99.90;;;;;;5106697;27;20038;-82
2022/09/01 03:06:45;;;;;;;3.30;2.20;;;12.70;99.90;;;;;;5100566;27;20043;-81
2022/09/01 03:09:14;;;;;;;2.90;1.90;;;12.70;99.90;;;;;;5117727;27;20524;-80
2022/09/01 03:11:42;;;;;;;2.90;1.90;;;12.70;99.90;;;;;;5120724;27;20050;-81
2022/09/01 03:14:08;;;;;;;5.22;2.17;;;12.70;99.90;;;;;;5116249;27;20091;-81
2022/09/01 03:16:38;;;;;;;2.95;2.30;;;12.70;99.90;;;;;;5122337;27;20058;-82
2022/09/01 03:19:10;;;;;;;4.05;2.42;;;12.70;99.90;;;;;;5122252;27;20049;-81
2022/09/01 03:21:42;;;;;;;4.43;2.50;;;12.60;99.90;;;;;;5098363;27;20051;-82
2022/09/01 03:24:09;;;;;;;4.30;2.30;;;12.60;99.90;;;;;;5103162;27;20059;-82
2022/09/01 03:26:35;;;;;;;3.65;2.38;;;12.60;99.90;;;;;;5119691;27;20536;-82
2022/09/01 03:29:02;;;;;;;3.08;2.35;;;12.60;99.90;;;;;;5096016;27;20079;-81
2022/09/01 03:31:28;;;;;;;3.10;2.10;;;12.60;99.90;;;;;;5097132;27;20558;-79
2022/09/01 03:33:55;;;;;;;3.22;2.38;;;12.50;99.90;;;;;;5087473;27;20046;-83
2022/09/01 03:36:29;;;;;;;3.72;2.40;;;12.50;99.90;;;;;;5105751;27;20126;-81
2022/09/01 03:38:56;;;;;;;4.18;2.40;;;12.50;99.90;;;;;;5127518;27;20813;-81
2022/09/01 03:41:27;;;;;;;3.70;2.17;;;12.50;99.90;;;;;;5120433;27;20573;-82
2022/09/01 03:43:55;;;;;;;3.17;2.20;;;12.50;99.90;;;;;;5092724;27;20042;-81
2022/09/01 03:46:21;;;;;;;4.63;2.38;;;12.50;99.90;;;;;;5112993;27;20083;-82
2022/09/01 03:48:57;;;;;;;3.03;2.50;;;12.50;99.90;;;;;;5113520;27;20123;-82
2022/09/01 03:51:24;;;;;;;3.25;2.45;;;12.50;99.90;;;;;;5117343;27;20515;-80
2022/09/01 03:53:53;;;;;;;4.32;2.55;;;12.40;99.90;;;;;;5125817;27;20517;-82
2022/09/01 03:56:20;;;;;;;3.38;2.30;;;12.40;99.90;;;;;;5117436;27;20486;-81
2022/09/01 03:58:46;;;;;;;4.07;2.30;;;12.40;99.90;;;;;;5102361;27;20095;-80
2022/09/01 04:01:13;;;;;;;2.90;2.25;;;12.30;99.90;;;;;;5111866;27;20512;-82
2022/09/01 04:03:40;;;;;;;4.05;2.45;;;12.30;99.90;;;;;;5078652;27;20046;-81
2022/09/01 04:06:12;;;;;;;4.55;2.78;;;12.30;99.90;;;;;;5074395;27;20137;-80
2022/09/01 04:08:38;;;;;;;4.28;2.40;;;12.30;99.90;;;;;;5107480;27;20039;-81
2022/09/01 04:11:16;;;;;;;4.68;2.55;;;12.30;99.90;;;;;;5081527;27;20039;-82
2022/09/01 04:13:43;;;;;;;3.70;2.85;;;12.30;99.90;;;;;;5099810;27;20137;-81
2022/09/01 04:19:18;;;;;;;4.53;2.47;;;12.30;99.90;;;;;;5117469;27;20058;-82
2022/09/01 04:21:51;;;;;;;4.53;2.70;;;12.30;99.90;;;;;;5097688;27;20054;-81
2022/09/01 04:24:17;;;;;;;4.75;2.60;;;12.30;99.90;;;;;;5093018;27;20541;-81
2022/09/01 04:26:45;;;;;;;3.90;2.40;;;12.30;99.90;;;;;;5115942;27;20050;-82
2022/09/01 04:29:18;;;;;;;4.38;2.88;;;12.30;99.90;;;;;;5104410;27;20492;-82
2022/09/01 04:31:44;;;;;;;6.20;2.80;;;12.30;99.90;;;;;;5076637;27;20035;-82
2022/09/01 04:34:13;;;;;;;4.75;2.95;;;12.30;99.90;;;;;;5093536;27;20046;-81
2022/09/01 04:36:43;;;;;;;4.07;3.05;;;12.30;99.90;;;;;;5083380;27;20081;-81
2022/09/01 04:39:11;;;;;;;3.95;2.75;;;12.30;99.90;;;;;;5096680;27;20452;-82
2022/09/01 04:41:44;;;;;;;3.35;2.60;;;12.30;99.90;;;;;;5075466;27;20039;-82
2022/09/01 04:44:11;;;;;;;3.80;2.67;;;12.30;99.90;;;;;;5101448;27;20070;-83
2022/09/01 04:46:45;;;;;;;4.22;2.78;;;12.30;99.90;;;;;;5117781;27;20038;-82
2022/09/01 04:49:14;;;;;;;6.10;2.60;;;12.30;99.90;;;;;;5105308;27;20485;-81
2022/09/01 04:51:43;;;;;;;5.45;3.00;;;12.30;99.90;;;;;;5123312;27;20093;-82
2022/09/01 04:54:15;;;;;;;3.78;2.80;;;12.30;99.90;;;;;;5123769;27;20046;-81
2022/09/01 04:56:43;;;;;;;4.88;2.40;;;12.30;99.90;;;;;;5100483;27;20050;-80
2022/09/01 04:59:10;;;;;;;3.30;2.50;;;12.40;99.90;;;;;;5112583;27;20047;-82
2022/09/01 05:01:44;;;;;;;5.10;2.80;;;12.30;99.90;;;;;;5113081;27;20042;-83
2022/09/01 05:04:20;;;;;;;3.92;2.70;;;12.40;99.90;;;;;;5102940;27;20035;-79
2022/09/01 05:06:49;;;;;;;4.47;2.67;;;12.40;99.90;;;;;;5116396;27;20035;-82
2022/09/01 05:09:16;;;;;;;4.80;2.78;;;12.30;99.90;;;;;;5095999;27;20043;-82
2022/09/01 05:11:44;;;;;;;4.10;2.83;;;12.30;99.90;;;;;;5083333;27;20055;-83
2022/09/01 05:14:13;;;;;;;4.63;2.70;;;12.40;99.90;;;;;;5112121;27;20051;-81
2022/09/01 05:16:42;;;;;;;3.05;2.45;;;12.40;99.90;;;;;;5100142;27;20125;-82
2022/09/01 05:19:14;;;;;;;4.45;2.53;;;12.40;99.90;;;;;;5114201;27;20026;-83
2022/09/01 05:21:45;;;;;;;4.28;2.63;;;12.40;99.90;;;;;;5112815;27;20039;-83
2022/09/01 05:24:20;;;;;;;4.53;2.50;;;12.40;99.90;;;;;;5099622;27;20163;-83
2022/09/01 05:26:49;;;;;;;4.40;2.67;;;12.40;99.90;;;;;;5097761;27;20050;-82
2022/09/01 05:29:16;;;;;;;5.03;2.70;;;12.40;99.90;;;;;;5078636;27;20111;-82
2022/09/01 05:31:47;;;;;;;4.95;2.70;;;12.40;99.90;;;;;;5113016;27;20696;-82
2022/09/01 05:34:25;;;;;;;3.30;2.28;;;12.50;99.90;;;;;;5089077;27;20637;-82
2022/09/01 05:36:54;;;;;;;4.22;2.60;;;12.50;99.90;;;;;;5085077;27;20156;-83
2022/09/01 05:39:20;;;;;;;4.47;2.67;;;12.50;99.90;;;;;;5100157;27;20765;-82
2022/09/01 05:41:48;;;;;;;5.38;3.03;;;12.60;99.90;;;;;;5076070;27;20065;-82
2022/09/01 05:44:17;;;;;;;4.30;2.65;;;12.70;99.90;;;;;;5096702;27;20043;-82
2022/09/01 05:46:43;;;;;;;4.05;2.35;;;12.70;99.90;;;;;;5113023;27;20047;-82
2022/09/01 05:49:12;;;;;;;5.15;2.20;;;12.80;99.90;;;;;;5107039;27;20050;-83
2022/09/01 05:51:41;;;;;;;4.18;2.67;;;12.80;99.90;;;;;;5081922;27;20028;-82
2022/09/01 05:54:08;;;;;;;3.53;2.53;;;12.80;99.90;;;;;;5111717;27;20047;-83
2022/09/01 05:56:39;;;;;;;5.78;2.38;;;12.90;99.90;;;;;;5087470;27;20450;-83
2022/09/01 05:59:06;;;;;;;5.45;2.95;;;12.90;99.90;;;;;;5112958;27;20766;-82
2022/09/01 06:01:33;;;;;;;4.45;2.40;;;12.90;99.90;;;;;;5110576;27;20143;-82
2022/09/01 06:04:03;;;;;;;4.38;2.25;;;13.00;99.90;;;;;;5106293;27;20047;-83
2022/09/01 06:06:34;;;;;;;;;;;13.10;99.90;;;;;;5095288;27;20043;-83
2022/09/01 06:09:01;;;;;;;2.83;2.17;;;13.10;99.90;;;;;;5104459;27;19930;-81
2022/09/01 06:11:27;;;;;;;5.50;2.95;;;13.20;99.90;;;;;;5102626;27;20042;-82
2022/09/01 06:13:54;;;;;;;3.65;2.10;;;13.30;99.90;;;;;;5101454;27;20039;-83
2022/09/01 06:16:20;;;;;;;3.38;2.40;;;13.40;99.90;;;;;;5091172;27;20078;-82
2022/09/01 06:18:46;;;;;;;4.05;2.20;;;13.50;99.90;;;;;;5088036;27;20046;-81
2022/09/01 06:21:15;;;;;;;3.33;2.05;;;13.60;99.90;;;;;;5073606;27;20397;-76
2022/09/01 06:23:42;;;;;;;4.40;2.00;;;13.60;99.90;;;;;;5097405;27;20043;-77
2022/09/01 06:26:27;;;;;;;3.28;2.00;;;13.70;99.90;;;;;;5103487;27;20038;-77
2022/09/01 06:29:03;;;;;;;3.35;2.00;;;13.90;99.90;;;;;;5111853;27;20501;-77
2022/09/01 06:31:37;;;;;;;4.63;1.90;;;13.90;99.90;;;;;;5116905;27;20627;-77
2022/09/01 06:34:12;;;;;;;5.90;2.15;;;14.00;99.90;;;;;;5095524;27;20087;-82
2022/09/01 06:36:41;;;;;;;3.20;1.98;;;14.10;99.90;;;;;;5117313;27;20138;-84
2022/09/01 06:39:08;;;;;;;3.20;1.80;;;14.20;99.90;;;;;;5072500;27;20043;-84
2022/09/01 06:41:36;;;;;;;4.45;2.15;;;14.30;99.90;;;;;;5099974;27;20058;-85
2022/09/01 06:44:03;;;;;;;3.20;1.75;;;14.40;99.90;;;;;;5090157;27;20051;-86
2022/09/01 06:46:29;;;;;;;3.10;1.90;;;14.50;99.90;;;;;;5106086;27;20051;-85
2022/09/01 06:48:57;;;;;;;4.38;1.80;;;14.60;99.90;;;;;;5089637;27;20039;-85
2022/09/01 06:51:27;;;;;;;3.15;1.92;;;14.70;99.90;;;;;;5078550;27;20043;-85
2022/09/01 06:53:58;;;;;;;2.97;1.80;;;14.80;99.90;;;;;;5092629;27;20051;-84
2022/09/01 06:56:28;;;;;;;4.25;2.10;;;14.80;99.90;;;;;;5118349;27;20127;-86
2022/09/01 06:58:55;;;;;;;4.18;2.28;;;14.90;99.90;;;;;;5118814;27;20126;-86
2022/09/01 07:01:22;;;;;;;3.78;2.13;;;14.90;99.90;;;;;;5103197;27;20597;-86
2022/09/01 07:03:55;;;;;;;3.10;1.90;;;15.00;99.90;;;;;;5104912;27;20085;-78
2022/09/01 07:06:26;;;;;;;4.53;1.80;;;15.00;99.90;;;;;;5102373;27;20536;-78
2022/09/01 07:09:00;;;;;;;3.85;2.13;;;15.10;99.90;;;;;;5121370;27;20050;-79
2022/09/01 07:11:29;;;;;;;3.50;1.95;;;15.30;99.90;;;;;;5096528;27;20137;-78
2022/09/01 07:14:02;;;;;;;3.10;1.70;;;15.30;99.90;;;;;;5118692;27;20129;-79
2022/09/01 07:16:33;;;;;;;4.05;1.75;;;15.50;99.90;;;;;;5116569;27;20516;-78
2022/09/01 07:19:00;;;;;;;3.45;1.85;;;15.60;99.90;;;;;;5095852;27;20035;-77
2022/09/01 07:21:30;;;;;;;4.03;1.90;;;15.80;99.90;;;;;;5083260;27;20063;-85
2022/09/01 07:23:58;;;;;;;3.88;1.70;;;15.90;99.90;;;;;;5116795;27;20052;-86
2022/09/01 07:26:24;;;;;;;8.82;2.25;;;16.10;99.90;;;;;;5101381;27;20046;-84
2022/09/01 07:28:51;;;;;;;2.25;1.40;;;16.20;99.90;;;;;;5116081;27;20043;-86
2022/09/01 07:31:25;;;;;;;3.22;1.38;;;16.40;99.90;;;;;;5092400;27;20054;-84
2022/09/01 07:33:53;;;;;;;4.40;1.60;;;16.60;99.90;;;;;;5128915;27;20064;-87
2022/09/01 07:36:19;;;;;;;4.15;1.50;;;16.70;99.90;;;;;;5104672;27;20062;-87
2022/09/01 07:38:52;;;;;;;2.35;1.40;;;16.90;99.90;;;;;;5112408;27;20070;-86
2022/09/01 07:41:20;;;;;;;2.65;1.30;;;17.00;99.90;;;;;;5091490;27;20038;-85
2022/09/01 07:43:54;;;;;;;3.70;1.38;;;17.10;99.90;;;;;;5099172;28;20131;-85
2022/09/01 07:46:21;;;;;;;3.75;1.20;;;17.30;99.90;;;;;;5090365;27;20047;-85
2022/09/01 07:48:49;;;;;;;3.83;1.20;;;17.40;99.90;;;;;;5056181;28;20047;-85
2022/09/01 07:51:18;;;;;;;3.92;1.42;;;17.50;99.90;;;;;;5093325;27;20043;-83
2022/09/01 07:53:48;;;;;;;2.85;1.58;;;17.60;99.90;;;;;;5093979;27;20134;-85
2022/09/01 07:56:17;;;;;;;3.58;1.33;;;17.70;99.90;;;;;;5117977;27;20042;-85
2022/09/01 07:58:48;;;;;;;3.35;1.33;;;17.80;99.90;;;;;;5094824;27;20069;-78
2022/09/01 08:01:17;;;;;;;3.28;1.27;;;18.00;99.90;;;;;;5080912;27;20039;-79
2022/09/01 08:03:49;;;;;;;3.60;1.27;;;18.10;99.90;;;;;;5095607;27;20101;-79
2022/09/01 08:06:18;;;;;;;3.35;1.20;;;18.20;99.90;;;;;;5113957;27;20494;-78
2022/09/01 08:08:45;;;;;;;2.60;1.60;;;18.30;99.90;;;;;;5097216;27;20558;-77
2022/09/01 08:11:27;;;;;;;2.28;1.20;;;18.40;99.90;;;;;;5092256;27;20039;-82
2022/09/01 08:13:57;;;;;;;3.10;1.17;;;18.60;99.90;;;;;;5100854;27;20059;-87
2022/09/01 08:16:23;;;;;;;;;;;18.60;99.90;;;;;;5102608;27;20031;-86
2022/09/01 08:18:49;;;;;;;3.40;1.15;;;18.70;99.90;;;;;;5102273;27;19923;-89
2022/09/01 08:21:17;;;;;;;4.35;1.42;;;18.80;99.90;;;;;;5081998;27;20521;-87
2022/09/01 08:23:43;;;;;;;9.25;1.90;;;18.90;99.90;;;;;;5081754;27;20591;-87
2022/09/01 08:26:11;;;;;;;8.10;1.50;;;19.10;99.90;;;;;;5069273;28;20074;-88
2022/09/01 08:28:39;;;;;;;5.60;1.42;;;19.20;99.90;;;;;;5102088;27;20047;-86
2022/09/01 08:31:10;;;;;;;2.15;0.90;;;19.40;99.90;;;;;;5095692;27;20731;-86
2022/09/01 08:33:37;;;;;;;2.72;0.93;;;19.50;99.90;;;;;;5105744;27;20145;-86
2022/09/01 08:36:12;;;;;;;4.32;1.20;;;19.50;99.90;;;;;;5116672;27;20043;-87
2022/09/01 08:38:39;;;;;;;3.20;1.20;;;19.70;99.90;;;;;;5089944;27;20050;-87
2022/09/01 08:41:15;;;;;;;3.13;1.15;;;19.80;99.90;;;;;;5104479;27;20048;-88
2022/09/01 08:43:59;;;;;;;2.75;1.20;;;19.80;99.90;;;;;;5116009;27;20055;-86
2022/09/01 08:46:36;;;;;;;1.50;0.80;;;19.90;99.90;;;;;;5098545;28;20043;-83
2022/09/01 08:49:18;;;;;;;2.30;0.80;;;20.10;99.90;;;;;;5101397;27;20047;-87
2022/09/01 08:51:58;;;;;;;1.70;0.88;;;20.10;98.90;;;;;;5099740;28;20040;-87
2022/09/01 08:54:45;;;;;;;2.85;1.10;;;20.20;97.90;;;;;;5098288;28;20034;-87
2022/09/01 08:57:22;;;;;;;3.85;1.20;;;20.30;98.50;;;;;;5114367;27;20047;-85
2022/09/01 08:59:59;;;;;;;3.35;1.17;;;20.40;98.00;;;;;;5103999;27;20043;-87
2022/09/01 09:02:50;;;;;;;2.58;0.95;;;20.50;96.80;;;;;;5095819;28;20048;-86
2022/09/01 09:05:34;;;;;;;2.53;1.08;;;20.60;95.60;;;;;;5070625;27;20051;-87
2022/09/01 09:08:19;;;;;;;1.65;0.82;;;20.80;94.80;;;;;;5118633;27;20100;-88
2022/09/01 09:11:00;;;;;;;3.65;0.98;;;20.90;95.30;;;;;;5101504;28;20047;-83
2022/09/01 09:13:45;;;;;;;3.60;1.33;;;21.10;94.20;;;;;;5086675;28;20701;-84
2022/09/01 09:16:31;;;;;;;3.47;1.15;;;21.20;92.70;;;;;;5090479;28;20501;-87
2022/09/01 09:19:39;;;;;;;2.22;0.90;;;21.10;92.20;;;;;;5089628;28;20052;-88
2022/09/01 09:22:09;;;;;;;4.00;1.00;;;21.10;92.20;;;;;;5037540;28;20630;-85
2022/09/01 09:25:02;;;;;;;2.85;0.88;;;21.30;90.90;;;;;;5044650;28;20056;-87
2022/09/01 09:27:34;;;;;;;2.25;0.80;;;21.40;89.20;;;;;;5082520;28;20137;-86
2022/09/01 09:30:30;;;;;;;3.42;0.90;;;21.60;90.70;;;;;;5101170;28;20050;-88
2022/09/01 09:33:05;;;;;;;1.92;0.80;;;21.70;90.50;;;;;;5088884;28;20047;-85
2022/09/01 09:35:40;;;;;;;2.30;0.90;;;21.80;86.50;;;;;;5083362;27;20043;-84
2022/09/01 09:38:17;;;;;;;2.80;0.65;;;21.70;86.40;;;;;;5117448;28;20502;-83
2022/09/01 09:41:15;;;;;;;3.30;0.80;;;21.70;86.20;;;;;;5113835;28;20114;-85
2022/09/01 09:44:20;;;;;;;2.15;0.70;;;21.80;88.20;;;;;;5107399;27;20501;-83
2022/09/01 09:46:47;;;;;;;3.42;0.95;;;22.00;85.50;;;;;;5102478;28;20047;-86
2022/09/01 09:49:25;;;;;;;4.68;0.95;;;22.20;82.60;;;;;;5081298;27;20047;-82
2022/09/01 09:52:16;;;;;;;1.45;0.65;;;22.30;82.00;;;;;;5103360;27;20096;-87
2022/09/01 09:55:02;;;;;;;2.65;0.88;;;22.30;80.50;;;;;;5107225;27;20058;-85
2022/09/01 09:57:38;;;;;;;3.05;0.85;;;22.30;79.80;;;;;;5120243;27;20039;-85
2022/09/01 10:00:23;;;;;;;2.17;0.93;;;22.40;81.10;;;;;;5119452;27;20071;-86
2022/09/01 10:03:01;;;;;;;1.73;0.80;;;22.60;77.60;;;;;;5101599;28;20093;-87
2022/09/01 10:05:38;;;;;;;2.75;0.82;;;22.80;75.80;;;;;;5089865;27;20101;-83
2022/09/01 10:08:43;;;;;;;2.45;0.52;;;22.80;72.90;;;;;;5116744;27;20043;-85
2022/09/01 10:11:28;;;;;;;3.15;0.57;;;22.80;73.40;;;;;;5087505;27;20621;-87
2022/09/01 10:13:54;;;;;;;2.13;0.57;;;22.80;72.60;;;;;;5095586;27;20046;-85
2022/09/01 10:16:26;;;;;;;2.90;0.70;;;22.90;71.30;;;;;;5100444;27;20047;-86
2022/09/01 10:18:59;;;;;;;1.73;0.60;;;22.90;69.30;;;;;;5104098;27;20051;-86
2022/09/01 10:21:44;;;;;;;4.53;0.73;;;23.00;70.30;;;;;;5120701;27;20042;-80
2022/09/01 10:24:34;;;;;;;1.38;0.73;;;23.10;65.90;;;;;;5103484;27;20051;-85
2022/09/01 10:27:02;;;;;;;2.13;0.60;;;23.00;65.00;;;;;;5098606;28;20051;-82
2022/09/01 10:29:35;;;;;;;3.97;0.65;;;23.00;65.70;;;;;;5101845;28;20043;-85
2022/09/01 10:32:09;;;;;;;1.65;0.70;;;23.10;63.60;;;;;;5117632;27;20046;-85
2022/09/01 10:34:43;;;;;;;2.50;0.47;;;23.10;63.80;;;;;;5104303;28;20139;-84
2022/09/01 10:37:11;;;;;;;2.22;0.55;;;23.20;62.20;;;;;;5107394;27;20100;-88
2022/09/01 10:40:09;;;;;;;2.40;0.70;;;23.20;63.60;;;;;;5105661;27;20035;-83
2022/09/01 10:42:44;;;;;;;1.67;0.73;;;23.30;63.20;;;;;;5122814;27;20055;-84
2022/09/01 10:45:39;;;;;;;3.10;0.60;;;23.30;64.00;;;;;;5099755;27;20118;-86
2022/09/01 10:48:20;;;;;;;4.53;0.70;;;23.60;63.30;;;;;;5099562;27;20600;-82
2022/09/01 10:51:12;;;;;;;3.92;0.85;;;23.80;61.20;;;;;;5116825;27;20068;-84
2022/09/01 10:53:44;;;;;;;1.20;0.52;;;23.90;59.60;;;;;;5106703;27;20066;-86
2022/09/01 10:56:16;;;;;;;4.78;0.77;;;23.70;58.70;;;;;;5099128;27;20043;-86
2022/09/01 10:58:45;;;;;;;2.72;0.65;;;23.40;59.50;;;;;;5101617;27;20039;-86
2022/09/01 11:01:46;;;;;;;3.35;0.52;;;23.00;60.60;;;;;;5099895;27;20070;-85
2022/09/01 11:04:22;;;;;;;1.05;0.52;;;22.80;62.10;;;;;;5102101;27;20043;-83
2022/09/01 11:06:57;;;;;;;5.82;0.73;;;23.00;61.00;;;;;;5118020;27;20064;-83
2022/09/01 11:10:01;;;;;;;1.42;0.50;;;23.20;60.90;;;;;;5103862;27;20131;-84
2022/09/01 11:13:08;;;;;;;;;;;;;;;;;;;;;
2022/09/01 11:15:41;;;;;;;2.42;0.70;;;23.70;58.50;;;;;;5115143;27;20050;-86
2022/09/01 11:18:26;;;;;;;2.33;0.60;;;23.70;58.80;;;;;;5104065;27;20035;-86
2022/09/01 11:21:23;;;;;;;1.50;0.60;;;23.90;58.80;;;;;;5112093;27;20697;-84
2022/09/01 11:24:34;;;;;;;0.88;0.40;;;24.20;58.30;;;;;;5103215;27;20096;-86
2022/09/01 11:27:00;;;;;;;4.05;0.68;;;24.20;57.20;;;;;;5092996;27;20129;-82
2022/09/01 11:29:50;;;;;;;2.00;0.60;;;24.00;56.50;;;;;;5099703;27;20118;-84
2022/09/01 11:32:18;;;;;;;2.10;0.50;;;23.80;56.10;;;;;;5098856;27;20030;-83
2022/09/01 11:34:45;;;;;;;0.80;0.40;;;23.80;58.10;;;;;;5097619;27;20070;-81
2022/09/01 11:37:20;;;;;;;3.13;0.90;;;23.90;57.70;;;;;;5103943;27;20456;-83
2022/09/01 11:39:49;;;;;;;1.60;0.50;;;23.90;56.30;;;;;;5103580;27;20047;-79
2022/09/01 11:42:18;;;;;;;3.55;0.60;;;23.70;55.90;;;;;;5092796;27;20127;-83
2022/09/01 11:45:01;;;;;;;1.63;0.67;;;23.30;57.40;;;;;;5097669;27;20091;-83
2022/09/01 11:47:36;;;;;;;3.85;0.73;;;23.20;57.10;;;;;;5121862;27;20094;-81
2022/09/01 11:50:25;;;;;;;3.05;0.50;;;23.20;58.40;;;;;;5118888;27;20039;-84
2022/09/01 11:53:18;;;;;;;2.63;0.80;;;23.10;56.90;;;;;;5107907;27;20043;-82
2022/09/01 11:55:48;;;;;;;2.40;0.55;;;23.00;58.30;;;;;;5120172;27;20631;-80
2022/09/01 11:58:33;;;;;;;1.40;0.60;;;23.00;58.00;;;;;;5108113;27;20031;-82
2022/09/01 12:01:16;;;;;;;2.10;0.82;;;23.20;60.40;;;;;;5117247;27;20114;-85
2022/09/01 12:03:43;;;;;;;3.17;0.80;;;23.50;58.00;;;;;;5116778;27;20423;-85
2022/09/01 12:06:16;;;;;;;3.10;0.47;;;23.70;57.60;;;;;;5090937;27;20058;-84
2022/09/01 12:08:52;;;;;;;2.05;0.60;;;23.60;56.80;;;;;;5113919;27;20531;-85
2022/09/01 12:11:26;;;;;;;1.70;0.50;;;23.50;56.70;;;;;;5119636;27;20569;-83
2022/09/01 12:14:09;;;;;;;4.30;0.75;;;23.30;58.60;;;;;;5097607;27;20104;-85
2022/09/01 12:16:38;;;;;;;2.47;0.73;;;23.30;57.70;;;;;;5125600;27;20051;-84
2022/09/01 12:19:31;;;;;;;2.38;0.55;;;23.10;58.30;;;;;;5117340;27;20066;-85
2022/09/01 12:22:05;;;;;;;3.10;0.68;;;22.90;58.50;;;;;;5094720;27;20062;-85
2022/09/01 12:24:35;;;;;;;2.03;0.60;;;22.80;59.70;;;;;;5099453;27;20035;-85
2022/09/01 12:27:02;;;;;;;1.92;0.63;;;23.00;60.20;;;;;;5102122;27;20077;-83
2022/09/01 12:29:28;;;;;;;3.22;0.55;;;23.30;58.50;;;;;;5107202;27;20157;-82
2022/09/01 12:31:55;;;;;;;16.67;1.40;;;23.50;58.10;;;;;;5098538;27;20042;-84
2022/09/01 12:34:40;;;;;;;4.35;0.77;;;23.80;57.80;;;;;;5103454;27;20039;-84
2022/09/01 12:37:15;;;;;;;1.33;0.55;;;24.00;57.20;;;;;;5100444;27;20038;-86
2022/09/01 12:39:47;;;;;;;1.83;0.63;;;24.00;57.10;;;;;;5099456;27;20038;-85
2022/09/01 12:42:19;;;;;;;2.85;0.70;;;24.00;57.30;;;;;;5115039;27;20050;-84
2022/09/01 12:44:52;;;;;;;3.08;0.57;;;24.10;56.50;;;;;;5110851;27;20067;-82
2022/09/01 12:47:46;;;;;;;3.03;0.60;;;24.40;55.00;;;;;;5113980;27;20073;-83
2022/09/01 12:50:14;;;;;;;5.13;0.73;;;24.30;55.50;;;;;;5095991;27;20683;-81
2022/09/01 12:52:49;;;;;;;2.65;0.52;;;24.30;54.80;;;;;;5095406;27;20043;-82
2022/09/01 12:55:28;;;;;;;1.60;0.50;;;24.20;54.30;;;;;;5114126;27;20083;-81
2022/09/01 12:57:59;;;;;;;2.15;0.57;;;24.20;55.70;;;;;;5101125;27;20043;-83
2022/09/01 13:00:30;;;;;;;4.07;0.50;;;24.40;55.10;;;;;;5096129;27;20335;-84
2022/09/01 13:03:20;;;;;;;1.65;0.60;;;24.40;54.00;;;;;;5094990;27;20244;-85
2022/09/01 13:05:50;;;;;;;3.08;0.60;;;24.10;53.40;;;;;;5101456;27;20176;-83
2022/09/01 13:08:29;;;;;;;1.77;0.40;;;23.80;54.40;;;;;;5102730;27;20043;-85
2022/09/01 13:11:09;;;;;;;3.17;0.68;;;23.60;54.70;;;;;;5107809;27;20043;-82
2022/09/01 13:13:41;;;;;;;1.50;0.60;;;23.50;55.70;;;;;;5094066;27;20039;-83
2022/09/01 13:16:11;;;;;;;4.32;0.70;;;23.40;56.10;;;;;;5103232;27;20031;-86
2022/09/01 13:18:38;;;;;;;1.95;0.60;;;23.40;56.60;;;;;;5074394;27;20094;-83
2022/09/01 13:21:04;;;;;;;2.42;0.60;;;23.50;57.30;;;;;;5096982;27;20049;-85
2022/09/01 13:23:31;;;;;;;3.08;0.43;;;23.50;56.40;;;;;;5085571;27;20047;-84
2022/09/01 13:25:57;;;;;;;2.05;0.73;;;23.50;56.20;;;;;;5088574;27;20046;-85